createdAt,value
2023-01-27T00:00:53.298Z,98536.63
2023-01-27T00:03:20.657Z,98540.91
2023-01-27T00:05:47.903Z,98535.91
2023-01-27T00:08:15.107Z,98540.97
2023-01-27T00:10:41.582Z,98538.41
2023-01-27T00:13:29.209Z,98540.00
2023-01-27T00:15:56.088Z,98536.69
2023-01-27T00:18:23.640Z,98526.63
2023-01-27T00:21:08.965Z,98524.97
2023-01-27T00:23:54.324Z,98516.50
2023-01-27T00:26:20.865Z,98523.25
2023-01-27T00:28:48.284Z,98520.66
2023-01-27T00:31:35.780Z,98523.19
2023-01-27T00:34:08.988Z,98516.53
2023-01-27T00:36:37.758Z,98515.75
2023-01-27T00:39:05.883Z,98518.19
2023-01-27T00:41:34.014Z,98513.94
2023-01-27T00:44:04.086Z,98517.38
2023-01-27T00:46:30.518Z,98511.44
2023-01-27T00:48:57.083Z,98513.22
2023-01-27T00:51:24.106Z,98509.88
2023-01-27T00:53:53.496Z,98515.72
2023-01-27T00:56:19.999Z,98513.28
2023-01-27T00:58:46.533Z,98516.59
2023-01-27T01:01:15.340Z,98517.56
2023-01-27T01:03:42.394Z,98520.03
2023-01-27T01:06:12.505Z,98527.53
2023-01-27T01:08:39.347Z,98533.47
2023-01-27T01:11:07.077Z,98524.16
2023-01-27T01:13:34.126Z,98537.63
2023-01-27T01:16:08.999Z,98536.03
2023-01-27T01:18:35.512Z,98540.28
2023-01-27T01:21:02.209Z,98539.34
2023-01-27T01:23:29.032Z,98546.88
2023-01-27T01:25:57.402Z,98547.72
2023-01-27T01:28:25.076Z,98536.69
2023-01-27T01:30:51.775Z,98541.69
2023-01-27T01:33:18.524Z,98537.50
2023-01-27T01:35:44.969Z,98530.84
2023-01-27T01:38:11.537Z,98533.41
2023-01-27T01:40:42.841Z,98533.44
2023-01-27T01:43:14.509Z,98536.03
2023-01-27T01:45:47.085Z,98530.91
2023-01-27T01:48:13.522Z,98532.56
2023-01-27T01:50:45.341Z,98529.97
2023-01-27T01:53:12.198Z,98537.56
2023-01-27T01:55:40.780Z,98528.25
2023-01-27T01:58:10.237Z,98531.59
2023-01-27T02:00:36.918Z,98528.34
2023-01-27T02:03:03.889Z,98535.03
2023-01-27T02:05:34.777Z,98542.00
2023-01-27T02:08:07.837Z,98542.72
2023-01-27T02:10:34.860Z,98541.69
2023-01-27T02:13:01.241Z,98545.81
2023-01-27T02:15:29.627Z,98535.63
2023-01-27T02:17:56.401Z,98535.66
2023-01-27T02:20:32.000Z,98538.19
2023-01-27T02:23:07.443Z,98530.66
2023-01-27T02:25:36.975Z,98520.50
2023-01-27T02:28:06.491Z,98526.41
2023-01-27T02:30:33.943Z,98523.91
2023-01-27T02:33:00.496Z,98525.56
2023-01-27T02:35:53.075Z,98528.16
2023-01-27T02:38:20.497Z,98538.00
2023-01-27T02:40:55.123Z,98541.69
2023-01-27T02:43:21.540Z,98537.47
2023-01-27T02:45:48.227Z,98535.00
2023-01-27T02:48:15.112Z,98526.13
2023-01-27T02:50:41.603Z,98527.09
2023-01-27T02:53:08.533Z,98526.09
2023-01-27T02:55:35.025Z,98528.75
2023-01-27T02:58:01.508Z,98526.72
2023-01-27T03:00:28.009Z,98524.47
2023-01-27T03:02:54.411Z,98528.78
2023-01-27T03:05:20.823Z,98530.50
2023-01-27T03:07:47.360Z,98534.72
2023-01-27T03:10:13.898Z,98538.75
2023-01-27T03:12:40.330Z,98542.25
2023-01-27T03:15:25.973Z,98545.53
2023-01-27T03:18:10.707Z,98542.03
2023-01-27T03:20:37.194Z,98543.56
2023-01-27T03:23:04.043Z,98542.69
2023-01-27T03:25:30.605Z,98533.28
2023-01-27T03:27:57.679Z,98545.88
2023-01-27T03:30:24.161Z,98538.16
2023-01-27T03:32:50.649Z,98538.38
2023-01-27T03:35:17.349Z,98532.44
2023-01-27T03:38:03.067Z,98529.16
2023-01-27T03:40:47.951Z,98537.03
2023-01-27T03:43:32.825Z,98539.38
2023-01-27T03:46:17.725Z,98542.63
2023-01-27T03:48:49.603Z,98539.41
2023-01-27T03:51:16.215Z,98534.28
2023-01-27T03:53:42.671Z,98536.69
2023-01-27T03:56:09.278Z,98540.75
2023-01-27T03:58:37.456Z,98540.53
2023-01-27T04:01:07.003Z,98538.97
2023-01-27T04:03:53.579Z,98535.72
2023-01-27T04:06:47.564Z,98533.25
2023-01-27T04:09:28.237Z,98542.34
2023-01-27T04:11:56.452Z,98540.53
2023-01-27T04:14:42.149Z,98542.19
2023-01-27T04:17:17.428Z,98534.63
2023-01-27T04:19:44.071Z,98538.59
2023-01-27T04:22:12.394Z,98540.44
2023-01-27T04:24:39.338Z,98542.97
2023-01-27T04:27:08.381Z,98542.91
2023-01-27T04:29:39.224Z,98547.25
2023-01-27T04:32:09.415Z,98548.94
2023-01-27T04:34:36.258Z,98543.91
2023-01-27T04:37:03.564Z,98535.53
2023-01-27T04:39:30.018Z,98548.38
2023-01-27T04:41:57.398Z,98552.41
2023-01-27T04:44:24.243Z,98554.94
2023-01-27T04:46:51.643Z,98550.06
2023-01-27T04:49:18.716Z,98559.34
2023-01-27T04:51:46.290Z,98554.19
2023-01-27T04:54:13.677Z,98560.72
2023-01-27T04:56:44.403Z,98553.97
2023-01-27T04:59:12.667Z,98551.50
2023-01-27T05:01:39.175Z,98552.09
2023-01-27T05:04:05.704Z,98554.56
2023-01-27T05:06:32.362Z,98552.13
2023-01-27T05:08:59.008Z,98556.44
2023-01-27T05:11:25.631Z,98558.84
2023-01-27T05:13:52.280Z,98556.47
2023-01-27T05:16:21.149Z,98555.72
2023-01-27T05:18:49.553Z,98554.88
2023-01-27T05:21:18.702Z,98552.34
2023-01-27T05:23:45.598Z,98561.59
2023-01-27T05:26:20.126Z,98560.50
2023-01-27T05:28:48.783Z,98570.69
2023-01-27T05:31:20.429Z,98570.25
2023-01-27T05:33:49.155Z,98565.09
2023-01-27T05:36:18.434Z,98569.22
2023-01-27T05:38:45.139Z,98571.59
2023-01-27T05:41:12.830Z,98574.88
2023-01-27T05:43:42.208Z,98572.44
2023-01-27T05:46:11.739Z,98577.53
2023-01-27T05:48:43.576Z,98575.56
2023-01-27T05:51:12.908Z,98590.03
2023-01-27T05:53:40.996Z,98593.41
2023-01-27T05:56:10.400Z,98598.47
2023-01-27T05:58:37.633Z,98589.25
2023-01-27T06:01:10.447Z,98591.75
2023-01-27T06:03:37.595Z,98592.84
2023-01-27T06:06:04.736Z,98597.00
2023-01-27T06:08:31.557Z,98596.81
2023-01-27T06:10:58.829Z,98601.94
2023-01-27T06:13:25.565Z,98604.59
2023-01-27T06:15:52.040Z,98613.75
2023-01-27T06:18:19.595Z,98616.91
2023-01-27T06:20:46.879Z,98612.88
2023-01-27T06:23:15.404Z,98617.13
2023-01-27T06:25:44.526Z,98619.81
2023-01-27T06:28:19.947Z,98618.09
2023-01-27T06:30:53.586Z,98619.09
2023-01-27T06:33:20.019Z,98617.44
2023-01-27T06:35:46.451Z,98625.91
2023-01-27T06:38:14.849Z,98626.66
2023-01-27T06:40:41.497Z,98626.59
2023-01-27T06:43:13.703Z,98629.84
2023-01-27T06:45:40.568Z,98633.31
2023-01-27T06:48:08.407Z,98641.44
2023-01-27T06:50:36.295Z,98634.75
2023-01-27T06:53:05.628Z,98634.06
2023-01-27T06:55:32.584Z,98628.19
2023-01-27T06:57:59.185Z,98634.91
2023-01-27T07:00:25.726Z,98634.00
2023-01-27T07:02:55.334Z,98624.88
2023-01-27T07:05:21.783Z,98625.66
2023-01-27T07:07:48.210Z,98631.63
2023-01-27T07:10:15.058Z,98639.25
2023-01-27T07:12:41.799Z,98639.25
2023-01-27T07:15:09.947Z,98637.63
2023-01-27T07:17:37.303Z,98634.28
2023-01-27T07:20:04.968Z,98641.06
2023-01-27T07:22:31.446Z,98633.47
2023-01-27T07:25:01.326Z,98642.97
2023-01-27T07:27:28.237Z,98645.50
2023-01-27T07:29:54.680Z,98657.28
2023-01-27T07:32:21.435Z,98660.72
2023-01-27T07:34:47.887Z,98664.94
2023-01-27T07:37:14.608Z,98667.72
2023-01-27T07:39:41.177Z,98672.75
2023-01-27T07:42:08.719Z,98676.78
2023-01-27T07:44:35.197Z,98675.13
2023-01-27T07:47:03.720Z,98679.53
2023-01-27T07:49:30.206Z,98677.50
2023-01-27T07:51:56.645Z,98673.88
2023-01-27T07:54:27.137Z,98671.69
2023-01-27T07:56:53.570Z,98676.94
2023-01-27T07:59:20.191Z,98668.63
2023-01-27T08:01:48.218Z,98678.72
2023-01-27T08:04:15.106Z,98681.41
2023-01-27T08:06:41.568Z,98674.09
2023-01-27T08:09:08.108Z,98680.78
2023-01-27T08:11:34.700Z,98678.28
2023-01-27T08:14:01.527Z,98682.59
2023-01-27T08:16:28.253Z,98680.16
2023-01-27T08:18:55.040Z,98686.63
2023-01-27T08:21:21.620Z,98683.19
2023-01-27T08:23:48.135Z,98679.28
2023-01-27T08:26:14.576Z,98686.38
2023-01-27T08:28:42.160Z,98687.47
2023-01-27T08:31:12.385Z,98685.03
2023-01-27T08:33:40.371Z,98681.69
2023-01-27T08:36:10.810Z,98688.84
2023-01-27T08:38:38.237Z,98688.09
2023-01-27T08:43:43.008Z,98691.72
2023-01-27T08:46:10.100Z,98695.34
2023-01-27T08:48:37.608Z,98696.00
2023-01-27T08:51:08.738Z,98693.63
2023-01-27T08:53:36.989Z,98689.44
2023-01-27T08:56:07.290Z,98691.34
2023-01-27T08:58:34.924Z,98695.53
2023-01-27T09:01:03.251Z,98690.34
2023-01-27T09:03:30.777Z,98690.47
2023-01-27T09:05:57.709Z,98697.34
2023-01-27T09:08:24.880Z,98692.97
2023-01-27T09:10:51.807Z,98698.03
2023-01-27T09:13:18.690Z,98697.00
2023-01-27T09:15:46.383Z,98702.59
2023-01-27T09:18:12.795Z,98695.13
2023-01-27T09:20:39.519Z,98695.13
2023-01-27T09:23:05.914Z,98709.31
2023-01-27T09:25:32.372Z,98716.09
2023-01-27T09:27:59.908Z,98716.22
2023-01-27T09:30:28.008Z,98717.88
2023-01-27T09:32:58.977Z,98715.03
2023-01-27T09:35:27.368Z,98719.34
2023-01-27T09:37:57.844Z,98721.91
2023-01-27T09:40:57.189Z,98725.94
2023-01-27T09:43:56.137Z,98722.69
2023-01-27T09:46:47.721Z,98728.50
2023-01-27T09:49:30.573Z,98725.06
2023-01-27T09:52:41.833Z,98729.16
2023-01-27T09:55:22.147Z,98723.16
2023-01-27T09:57:54.519Z,98713.25
2023-01-27T10:01:06.039Z,98717.66
2023-01-27T10:03:48.756Z,98708.22
2023-01-27T10:06:19.768Z,98707.16
2023-01-27T10:09:11.100Z,98714.88
2023-01-27T10:12:19.572Z,98721.88
2023-01-27T10:15:04.136Z,98729.47
2023-01-27T10:17:39.605Z,98730.41
2023-01-27T10:20:14.153Z,98732.31
2023-01-27T10:23:06.445Z,98730.66
2023-01-27T10:25:35.873Z,98740.78
2023-01-27T10:28:14.454Z,98742.31
2023-01-27T10:31:19.967Z,98736.59
2023-01-27T10:33:52.689Z,98736.66
2023-01-27T10:36:27.208Z,98734.25
2023-01-27T10:39:15.913Z,98738.97
2023-01-27T10:42:14.062Z,98732.63
2023-01-27T10:45:03.628Z,98724.97
2023-01-27T10:47:54.264Z,98722.50
2023-01-27T10:50:30.692Z,98722.28
2023-01-27T10:53:04.478Z,98727.44
2023-01-27T10:55:42.034Z,98722.66
2023-01-27T10:58:34.523Z,98727.84
2023-01-27T11:01:20.510Z,98720.56
2023-01-27T11:04:01.992Z,98716.41
2023-01-27T11:06:34.160Z,98710.44
2023-01-27T11:09:24.516Z,98712.72
2023-01-27T11:11:52.324Z,98714.00
2023-01-27T11:14:25.388Z,98703.31
2023-01-27T11:17:33.742Z,98697.13
2023-01-27T11:20:06.512Z,98708.38
2023-01-27T11:22:52.170Z,98707.91
2023-01-27T11:25:27.413Z,98705.22
2023-01-27T11:27:57.627Z,98709.38
2023-01-27T11:30:33.950Z,98706.59
2023-01-27T11:33:40.700Z,98705.47
2023-01-27T11:36:09.291Z,98705.78
2023-01-27T11:38:35.896Z,98705.13
2023-01-27T11:41:02.395Z,98703.53
2023-01-27T11:43:29.248Z,98700.00
2023-01-27T11:46:02.558Z,98697.22
2023-01-27T11:48:41.012Z,98693.09
2023-01-27T11:51:20.823Z,98683.81
2023-01-27T11:54:09.699Z,98684.31
2023-01-27T11:56:37.838Z,98674.41
2023-01-27T11:59:19.768Z,98682.16
2023-01-27T12:01:55.341Z,98669.44
2023-01-27T12:04:24.651Z,98679.09
2023-01-27T12:07:05.628Z,98677.69
2023-01-27T12:09:40.110Z,98682.56
2023-01-27T12:12:15.710Z,98681.66
2023-01-27T12:14:55.855Z,98675.81
2023-01-27T12:17:38.156Z,98682.84
2023-01-27T12:20:23.254Z,98680.03
2023-01-27T12:23:00.142Z,98682.53
2023-01-27T12:25:31.149Z,98680.78
2023-01-27T12:28:03.953Z,98666.84
2023-01-27T12:30:37.521Z,98673.66
2023-01-27T12:33:27.603Z,98668.81
2023-01-27T12:35:59.007Z,98662.00
2023-01-27T12:38:31.061Z,98665.56
2023-01-27T12:41:04.507Z,98657.50
2023-01-27T12:43:31.023Z,98655.97
2023-01-27T12:46:12.477Z,98661.09
2023-01-27T12:48:49.874Z,98653.41
2023-01-27T12:51:22.108Z,98650.16
2023-01-27T12:53:50.716Z,98662.13
2023-01-27T12:56:23.699Z,98656.81
2023-01-27T12:58:58.674Z,98651.75
2023-01-27T13:01:28.181Z,98656.03
2023-01-27T13:04:02.417Z,98653.19
2023-01-27T13:06:43.206Z,98658.31
2023-01-27T13:09:43.797Z,98654.91
2023-01-27T13:12:20.416Z,98657.56
2023-01-27T13:14:51.993Z,98664.44
2023-01-27T13:17:27.152Z,98659.78
2023-01-27T13:19:57.107Z,98663.84
2023-01-27T13:22:26.588Z,98670.59
2023-01-27T13:24:59.070Z,98677.56
2023-01-27T13:27:26.261Z,98671.72
2023-01-27T13:30:06.145Z,98681.00
2023-01-27T13:32:37.256Z,98681.72
2023-01-27T13:35:24.436Z,98681.69
2023-01-27T13:38:15.652Z,98682.66
2023-01-27T13:40:45.878Z,98681.78
2023-01-27T13:43:29.291Z,98690.31
2023-01-27T13:46:17.084Z,98689.28
2023-01-27T13:48:52.133Z,98682.50
2023-01-27T13:51:21.914Z,98677.47
2023-01-27T13:53:57.290Z,98680.03
2023-01-27T13:56:32.653Z,98683.88
2023-01-27T13:59:53.370Z,98687.44
2023-01-27T14:02:57.459Z,98699.59
2023-01-27T14:05:44.955Z,98693.41
2023-01-27T14:08:31.399Z,98689.91
2023-01-27T14:11:24.379Z,98690.72
2023-01-27T14:14:18.432Z,98694.28
2023-01-27T14:17:09.883Z,98688.13
2023-01-27T14:19:36.334Z,98692.22
2023-01-27T14:22:27.435Z,98699.19
2023-01-27T14:25:21.703Z,98690.94
2023-01-27T14:30:24.759Z,98690.63
2023-01-27T14:33:18.357Z,98689.28
2023-01-27T14:36:04.574Z,98693.56
2023-01-27T14:38:39.272Z,98691.56
2023-01-27T14:41:27.135Z,98701.25
2023-01-27T14:44:43.564Z,98696.59
2023-01-27T14:47:29.392Z,98699.78
2023-01-27T14:50:43.279Z,98701.44
2023-01-27T14:53:47.140Z,98701.47
2023-01-27T14:56:30.185Z,98703.94
2023-01-27T14:59:19.890Z,98705.50
2023-01-27T15:01:51.938Z,98706.31
2023-01-27T15:04:32.482Z,98711.47
2023-01-27T15:07:03.020Z,98713.13
2023-01-27T15:09:51.882Z,98709.78
2023-01-27T15:12:24.071Z,98709.81
2023-01-27T15:14:57.822Z,98707.38
2023-01-27T15:17:50.133Z,98716.69
2023-01-27T15:20:46.678Z,98721.50
2023-01-27T15:23:43.654Z,98730.72
2023-01-27T15:26:10.935Z,98720.53
2023-01-27T15:28:41.447Z,98729.88
2023-01-27T15:31:13.819Z,98732.28
2023-01-27T15:33:56.998Z,98736.44
2023-01-27T15:36:34.664Z,98742.03
2023-01-27T15:39:10.085Z,98740.41
2023-01-27T15:41:55.850Z,98743.03
2023-01-27T15:44:25.269Z,98731.94
2023-01-27T15:46:54.511Z,98745.34
2023-01-27T15:49:22.644Z,98747.88
2023-01-27T15:51:52.625Z,98755.28
2023-01-27T15:54:24.907Z,98752.69
2023-01-27T15:56:53.813Z,98746.06
2023-01-27T15:59:58.320Z,98772.13
2023-01-27T16:02:28.961Z,98768.72
2023-01-27T16:05:15.525Z,98760.31
2023-01-27T16:07:42.468Z,98767.72
2023-01-27T16:10:19.061Z,98766.94
2023-01-27T16:12:48.521Z,98773.00
2023-01-27T16:15:15.308Z,98773.03
2023-01-27T16:18:18.225Z,98767.06
2023-01-27T16:20:55.410Z,98775.19
2023-01-27T16:23:49.039Z,98766.03
2023-01-27T16:26:40.349Z,98777.78
2023-01-27T16:29:23.605Z,98777.78
2023-01-27T16:31:52.973Z,98778.53
2023-01-27T16:34:32.755Z,98774.09
2023-01-27T16:37:24.024Z,98774.00
2023-01-27T16:40:09.199Z,98776.53
2023-01-27T16:42:44.985Z,98772.13
2023-01-27T16:45:20.516Z,98781.50
2023-01-27T16:47:55.614Z,98781.66
2023-01-27T16:50:34.369Z,98779.81
2023-01-27T16:53:02.633Z,98781.63
2023-01-27T16:55:29.310Z,98784.34
2023-01-27T16:57:58.404Z,98781.63
2023-01-27T17:00:44.750Z,98781.56
2023-01-27T17:03:16.195Z,98786.75
2023-01-27T17:05:43.344Z,98782.63
2023-01-27T17:08:17.806Z,98785.84
2023-01-27T17:11:04.741Z,98793.63
2023-01-27T17:13:34.736Z,98792.78
2023-01-27T17:16:06.063Z,98795.25
2023-01-27T17:18:50.837Z,98798.75
2023-01-27T17:21:58.501Z,98796.25
2023-01-27T17:24:33.136Z,98801.25
2023-01-27T17:27:10.525Z,98807.88
2023-01-27T17:29:40.875Z,98803.97
2023-01-27T17:32:30.989Z,98798.19
2023-01-27T17:34:59.946Z,98803.00
2023-01-27T17:37:29.454Z,98802.25
2023-01-27T17:39:58.547Z,98799.75
2023-01-27T17:42:29.633Z,98803.13
2023-01-27T17:45:34.126Z,98805.81
2023-01-27T17:48:01.926Z,98809.25
2023-01-27T17:50:36.228Z,98815.06
2023-01-27T17:53:08.392Z,98821.09
2023-01-27T17:55:34.866Z,98814.31
2023-01-27T17:58:07.507Z,98806.72
2023-01-27T18:00:40.204Z,98821.91
2023-01-27T18:03:15.105Z,98807.41
2023-01-27T18:05:44.388Z,98822.66
2023-01-27T18:08:11.186Z,98822.72
2023-01-27T18:10:45.693Z,98817.91
2023-01-27T18:13:18.417Z,98822.19
2023-01-27T18:15:59.372Z,98824.56
2023-01-27T18:18:28.852Z,98834.88
2023-01-27T18:21:01.341Z,98835.66
2023-01-27T18:23:34.636Z,98842.31
2023-01-27T18:26:41.765Z,98839.16
2023-01-27T18:29:33.115Z,98840.03
2023-01-27T18:32:15.632Z,98833.16
2023-01-27T18:34:57.249Z,98849.13
2023-01-27T18:37:28.933Z,98844.03
2023-01-27T18:40:00.565Z,98848.06
2023-01-27T18:42:30.035Z,98843.34
2023-01-27T18:44:57.166Z,98846.53
2023-01-27T18:47:29.588Z,98853.19
2023-01-27T18:49:55.969Z,98847.34
2023-01-27T18:52:22.742Z,98848.41
2023-01-27T18:54:52.852Z,98843.19
2023-01-27T18:57:19.276Z,98844.75
2023-01-27T18:59:45.769Z,98845.72
2023-01-27T19:02:15.822Z,98838.13
2023-01-27T19:04:43.396Z,98853.31
2023-01-27T19:07:18.019Z,98852.38
2023-01-27T19:09:45.683Z,98851.47
2023-01-27T19:12:12.412Z,98849.72
2023-01-27T19:14:41.223Z,98856.47
2023-01-27T19:17:19.482Z,98853.19
2023-01-27T19:19:46.806Z,98852.38
2023-01-27T19:22:16.125Z,98843.66
2023-01-27T19:24:45.323Z,98849.78
2023-01-27T19:27:13.596Z,98855.66
2023-01-27T19:29:40.251Z,98848.84
2023-01-27T19:32:07.178Z,98854.72
2023-01-27T19:34:33.616Z,98856.56
2023-01-27T19:37:00.317Z,98866.91
2023-01-27T19:39:27.801Z,98865.19
2023-01-27T19:41:54.226Z,98869.44
2023-01-27T19:44:20.655Z,98870.34
2023-01-27T19:46:47.090Z,98865.91
2023-01-27T19:49:18.082Z,98866.06
2023-01-27T19:51:44.972Z,98870.00
2023-01-27T19:54:12.176Z,98876.59
2023-01-27T19:56:38.621Z,98879.97
2023-01-27T19:59:05.087Z,98887.63
2023-01-27T20:01:31.570Z,98885.16
2023-01-27T20:03:58.044Z,98890.16
2023-01-27T20:06:29.590Z,98885.97
2023-01-27T20:08:59.455Z,98885.25
2023-01-27T20:11:37.841Z,98886.88
2023-01-27T20:14:12.755Z,98889.47
2023-01-27T20:16:39.358Z,98888.63
2023-01-27T20:19:05.888Z,98883.59
2023-01-27T20:21:33.890Z,98885.38
2023-01-27T20:24:01.826Z,98884.59
2023-01-27T20:26:29.827Z,98888.06
2023-01-27T20:28:56.305Z,98903.59
2023-01-27T20:31:22.836Z,98894.22
2023-01-27T20:33:50.011Z,98900.19
2023-01-27T20:36:22.417Z,98900.38
2023-01-27T20:38:50.136Z,98896.97
2023-01-27T20:41:19.896Z,98900.75
2023-01-27T20:43:46.788Z,98891.44
2023-01-27T20:46:15.798Z,98901.59
2023-01-27T20:48:42.363Z,98904.03
2023-01-27T20:51:11.378Z,98903.75
2023-01-27T20:53:45.366Z,98914.09
2023-01-27T20:56:17.551Z,98908.97
2023-01-27T20:58:44.428Z,98909.81
2023-01-27T21:01:14.015Z,98908.09
2023-01-27T21:03:41.649Z,98904.56
2023-01-27T21:06:10.024Z,98907.94
2023-01-27T21:08:36.474Z,98905.41
2023-01-27T21:11:05.128Z,98908.69
2023-01-27T21:13:31.690Z,98900.44
2023-01-27T21:15:58.346Z,98893.63
2023-01-27T21:18:25.257Z,98899.53
2023-01-27T21:20:56.546Z,98896.94
2023-01-27T21:23:29.933Z,98893.72
2023-01-27T21:25:56.427Z,98883.53
2023-01-27T21:28:23.072Z,98886.91
2023-01-27T21:30:49.537Z,98889.53
2023-01-27T21:33:17.041Z,98885.34
2023-01-27T21:35:43.478Z,98885.34
2023-01-27T21:38:10.086Z,98883.59
2023-01-27T21:40:40.485Z,98896.22
2023-01-27T21:43:27.607Z,98892.88
2023-01-27T21:46:03.475Z,98881.00
2023-01-27T21:48:29.858Z,98877.66
2023-01-27T21:50:56.276Z,98882.72
2023-01-27T21:53:23.516Z,98887.88
2023-01-27T21:55:49.972Z,98889.53
2023-01-27T21:58:16.468Z,98888.63
2023-01-27T22:00:42.926Z,98892.88
2023-01-27T22:03:09.336Z,98892.94
2023-01-27T22:05:38.934Z,98892.16
2023-01-27T22:08:06.827Z,98888.78
2023-01-27T22:10:33.548Z,98894.69
2023-01-27T22:13:03.846Z,98893.78
2023-01-27T22:15:30.773Z,98893.00
2023-01-27T22:17:58.480Z,98888.81
2023-01-27T22:20:25.814Z,98887.13
2023-01-27T22:22:52.493Z,98889.59
2023-01-27T22:25:19.186Z,98896.34
2023-01-27T22:27:46.217Z,98893.81
2023-01-27T22:30:12.632Z,98896.34
2023-01-27T22:32:39.474Z,98888.72
2023-01-27T22:35:06.472Z,98898.94
2023-01-27T22:37:34.361Z,98898.91
2023-01-27T22:40:00.864Z,98900.66
2023-01-27T22:42:27.540Z,98900.69
2023-01-27T22:44:53.968Z,98893.03
2023-01-27T22:47:20.378Z,98892.25
2023-01-27T22:49:48.005Z,98891.31
2023-01-27T22:52:16.571Z,98890.50
2023-01-27T22:54:44.005Z,98889.66
2023-01-27T22:57:10.529Z,98895.53
2023-01-27T22:59:37.794Z,98893.84
2023-01-27T23:02:04.258Z,98892.22
2023-01-27T23:04:30.707Z,98893.00
2023-01-27T23:07:00.617Z,98893.84
2023-01-27T23:09:27.080Z,98897.22
2023-01-27T23:11:57.731Z,98893.81
2023-01-27T23:14:24.188Z,98893.00
2023-01-27T23:16:53.792Z,98889.63
2023-01-27T23:19:21.889Z,98893.00
2023-01-27T23:21:48.333Z,98887.13
2023-01-27T23:24:15.493Z,98890.56
2023-01-27T23:26:41.945Z,98886.31
2023-01-27T23:29:22.987Z,98885.47
2023-01-27T23:31:50.683Z,98890.56
2023-01-27T23:34:17.271Z,98880.44
2023-01-27T23:36:45.898Z,98888.91
2023-01-27T23:39:14.398Z,98890.53
2023-01-27T23:41:43.595Z,98892.22
2023-01-27T23:44:11.209Z,98892.25
2023-01-27T23:46:40.253Z,98887.19
2023-01-27T23:49:07.787Z,98888.00
2023-01-27T23:51:34.260Z,98886.31
2023-01-27T23:54:01.050Z,98882.09
2023-01-27T23:56:27.460Z,98877.00
2023-01-27T23:58:55.486Z,98884.59
